sensor_id;sensor_type;location;lat;lon;timestamp;P1;durP1;ratioP1;P2;durP2;ratioP2
25952;SDS011;13750;50.804;8.764;2024-03-29T00:01:17;1.17;;;0.50;;
25952;SDS011;13750;50.804;8.764;2024-03-29T00:03:42;1.43;;;0.60;;
25952;SDS011;13750;50.804;8.764;2024-03-29T00:06:09;0.60;;;0.60;;
25952;SDS011;13750;50.804;8.764;2024-03-29T00:08:34;0.40;;;0.40;;
25952;SDS011;13750;50.804;8.764;2024-03-29T00:11:00;1.00;;;0.50;;
25952;SDS011;13750;50.804;8.764;2024-03-29T00:13:25;1.17;;;0.70;;
25952;SDS011;13750;50.804;8.764;2024-03-29T00:15:51;1.00;;;0.60;;
25952;SDS011;13750;50.804;8.764;2024-03-29T00:18:17;1.20;;;0.80;;
25952;SDS011;13750;50.804;8.764;2024-03-29T00:20:42;1.27;;;0.80;;
25952;SDS011;13750;50.804;8.764;2024-03-29T00:23:08;0.80;;;0.60;;
25952;SDS011;13750;50.804;8.764;2024-03-29T00:25:33;1.97;;;0.90;;
25952;SDS011;13750;50.804;8.764;2024-03-29T00:27:59;1.03;;;0.60;;
25952;SDS011;13750;50.804;8.764;2024-03-29T00:30:26;1.13;;;0.47;;
25952;SDS011;13750;50.804;8.764;2024-03-29T00:32:51;0.53;;;0.50;;
25952;SDS011;13750;50.804;8.764;2024-03-29T00:35:17;1.10;;;0.60;;
25952;SDS011;13750;50.804;8.764;2024-03-29T00:37:42;1.37;;;0.70;;
25952;SDS011;13750;50.804;8.764;2024-03-29T00:40:08;0.93;;;0.57;;
25952;SDS011;13750;50.804;8.764;2024-03-29T00:42:34;0.70;;;0.50;;
25952;SDS011;13750;50.804;8.764;2024-03-29T00:45:00;1.17;;;0.60;;
25952;SDS011;13750;50.804;8.764;2024-03-29T00:47:25;0.40;;;0.40;;
25952;SDS011;13750;50.804;8.764;2024-03-29T00:49:51;0.77;;;0.43;;
25952;SDS011;13750;50.804;8.764;2024-03-29T00:52:17;0.68;;;0.50;;
25952;SDS011;13750;50.804;8.764;2024-03-29T00:54:42;0.93;;;0.50;;
25952;SDS011;13750;50.804;8.764;2024-03-29T00:57:08;0.63;;;0.40;;
25952;SDS011;13750;50.804;8.764;2024-03-29T00:59:38;1.08;;;0.70;;
25952;SDS011;13750;50.804;8.764;2024-03-29T01:02:04;0.90;;;0.50;;
25952;SDS011;13750;50.804;8.764;2024-03-29T01:04:29;0.50;;;0.50;;
25952;SDS011;13750;50.804;8.764;2024-03-29T01:06:55;0.63;;;0.63;;
25952;SDS011;13750;50.804;8.764;2024-03-29T01:09:21;0.65;;;0.47;;
25952;SDS011;13750;50.804;8.764;2024-03-29T01:11:47;1.07;;;0.70;;
25952;SDS011;13750;50.804;8.764;2024-03-29T01:14:12;1.07;;;0.50;;
25952;SDS011;13750;50.804;8.764;2024-03-29T01:16:38;0.50;;;0.50;;
25952;SDS011;13750;50.804;8.764;2024-03-29T01:19:03;0.50;;;0.50;;
25952;SDS011;13750;50.804;8.764;2024-03-29T01:21:30;0.98;;;0.70;;
25952;SDS011;13750;50.804;8.764;2024-03-29T01:23:56;1.10;;;0.70;;
25952;SDS011;13750;50.804;8.764;2024-03-29T01:26:21;1.15;;;0.80;;
25952;SDS011;13750;50.804;8.764;2024-03-29T01:28:47;0.65;;;0.60;;
25952;SDS011;13750;50.804;8.764;2024-03-29T01:31:12;1.70;;;0.68;;
25952;SDS011;13750;50.804;8.764;2024-03-29T01:33:38;0.87;;;0.60;;
25952;SDS011;13750;50.804;8.764;2024-03-29T01:36:06;0.65;;;0.60;;
25952;SDS011;13750;50.804;8.764;2024-03-29T01:38:32;0.60;;;0.50;;
25952;SDS011;13750;50.804;8.764;2024-03-29T01:40:57;1.33;;;0.67;;
25952;SDS011;13750;50.804;8.764;2024-03-29T01:43:23;0.63;;;0.63;;
25952;SDS011;13750;50.804;8.764;2024-03-29T01:45:50;1.17;;;0.70;;
25952;SDS011;13750;50.804;8.764;2024-03-29T01:48:19;0.60;;;0.60;;
25952;SDS011;13750;50.804;8.764;2024-03-29T01:50:47;0.77;;;0.60;;
25952;SDS011;13750;50.804;8.764;2024-03-29T01:53:13;0.60;;;0.45;;
25952;SDS011;13750;50.804;8.764;2024-03-29T01:55:40;1.00;;;0.60;;
25952;SDS011;13750;50.804;8.764;2024-03-29T01:58:07;0.90;;;0.53;;
25952;SDS011;13750;50.804;8.764;2024-03-29T02:00:34;0.60;;;0.50;;
25952;SDS011;13750;50.804;8.764;2024-03-29T02:03:02;0.90;;;0.50;;
25952;SDS011;13750;50.804;8.764;2024-03-29T02:05:29;0.50;;;0.47;;
25952;SDS011;13750;50.804;8.764;2024-03-29T02:07:55;0.60;;;0.40;;
25952;SDS011;13750;50.804;8.764;2024-03-29T02:12:48;0.52;;;0.52;;
25952;SDS011;13750;50.804;8.764;2024-03-29T02:15:14;0.70;;;0.50;;
25952;SDS011;13750;50.804;8.764;2024-03-29T02:17:43;0.73;;;0.60;;
25952;SDS011;13750;50.804;8.764;2024-03-29T02:20:09;0.70;;;0.43;;
25952;SDS011;13750;50.804;8.764;2024-03-29T02:22:36;1.58;;;0.57;;
25952;SDS011;13750;50.804;8.764;2024-03-29T02:25:10;1.08;;;0.40;;
25952;SDS011;13750;50.804;8.764;2024-03-29T02:30:03;0.45;;;0.45;;
25952;SDS011;13750;50.804;8.764;2024-03-29T02:32:28;0.63;;;0.40;;
25952;SDS011;13750;50.804;8.764;2024-03-29T02:34:54;0.77;;;0.50;;
25952;SDS011;13750;50.804;8.764;2024-03-29T02:37:20;0.50;;;0.47;;
25952;SDS011;13750;50.804;8.764;2024-03-29T02:39:45;0.60;;;0.40;;
25952;SDS011;13750;50.804;8.764;2024-03-29T02:42:11;0.73;;;0.50;;
25952;SDS011;13750;50.804;8.764;2024-03-29T02:44:36;0.63;;;0.50;;
25952;SDS011;13750;50.804;8.764;2024-03-29T02:47:02;0.77;;;0.47;;
25952;SDS011;13750;50.804;8.764;2024-03-29T02:49:27;0.25;;;0.25;;
25952;SDS011;13750;50.804;8.764;2024-03-29T02:51:53;0.57;;;0.40;;
25952;SDS011;13750;50.804;8.764;2024-03-29T02:54:19;0.60;;;0.40;;
25952;SDS011;13750;50.804;8.764;2024-03-29T02:56:45;0.60;;;0.30;;
25952;SDS011;13750;50.804;8.764;2024-03-29T02:59:10;0.30;;;0.30;;
25952;SDS011;13750;50.804;8.764;2024-03-29T03:01:36;0.87;;;0.50;;
25952;SDS011;13750;50.804;8.764;2024-03-29T03:04:02;0.40;;;0.40;;
25952;SDS011;13750;50.804;8.764;2024-03-29T03:06:28;1.02;;;0.40;;
25952;SDS011;13750;50.804;8.764;2024-03-29T03:08:53;0.30;;;0.30;;
25952;SDS011;13750;50.804;8.764;2024-03-29T03:11:37;0.50;;;0.30;;
25952;SDS011;13750;50.804;8.764;2024-03-29T03:14:03;0.60;;;0.60;;
25952;SDS011;13750;50.804;8.764;2024-03-29T03:16:28;0.43;;;0.40;;
25952;SDS011;13750;50.804;8.764;2024-03-29T03:18:54;0.77;;;0.70;;
25952;SDS011;13750;50.804;8.764;2024-03-29T03:21:19;0.37;;;0.37;;
25952;SDS011;13750;50.804;8.764;2024-03-29T03:23:45;0.82;;;0.40;;
25952;SDS011;13750;50.804;8.764;2024-03-29T03:26:11;0.40;;;0.40;;
25952;SDS011;13750;50.804;8.764;2024-03-29T03:28:37;0.40;;;0.40;;
25952;SDS011;13750;50.804;8.764;2024-03-29T03:31:02;1.87;;;0.43;;
25952;SDS011;13750;50.804;8.764;2024-03-29T03:33:28;1.03;;;0.30;;
25952;SDS011;13750;50.804;8.764;2024-03-29T03:35:53;0.63;;;0.40;;
25952;SDS011;13750;50.804;8.764;2024-03-29T03:38:19;0.40;;;0.40;;
25952;SDS011;13750;50.804;8.764;2024-03-29T03:40:44;0.60;;;0.40;;
25952;SDS011;13750;50.804;8.764;2024-03-29T03:43:10;0.43;;;0.35;;
25952;SDS011;13750;50.804;8.764;2024-03-29T03:45:39;0.67;;;0.60;;
25952;SDS011;13750;50.804;8.764;2024-03-29T03:48:06;0.68;;;0.40;;
25952;SDS011;13750;50.804;8.764;2024-03-29T03:50:33;0.43;;;0.32;;
25952;SDS011;13750;50.804;8.764;2024-03-29T03:52:59;0.67;;;0.50;;
25952;SDS011;13750;50.804;8.764;2024-03-29T03:55:25;0.87;;;0.43;;
25952;SDS011;13750;50.804;8.764;2024-03-29T03:57:50;0.40;;;0.40;;
25952;SDS011;13750;50.804;8.764;2024-03-29T04:00:17;0.57;;;0.37;;
25952;SDS011;13750;50.804;8.764;2024-03-29T04:02:48;0.82;;;0.40;;
25952;SDS011;13750;50.804;8.764;2024-03-29T04:05:14;0.80;;;0.30;;
25952;SDS011;13750;50.804;8.764;2024-03-29T04:07:41;0.63;;;0.40;;
25952;SDS011;13750;50.804;8.764;2024-03-29T04:10:07;1.10;;;0.43;;
25952;SDS011;13750;50.804;8.764;2024-03-29T04:12:33;0.40;;;0.40;;
25952;SDS011;13750;50.804;8.764;2024-03-29T04:14:58;0.50;;;0.50;;
25952;SDS011;13750;50.804;8.764;2024-03-29T04:17:24;1.03;;;0.50;;
25952;SDS011;13750;50.804;8.764;2024-03-29T04:19:49;1.90;;;0.80;;
25952;SDS011;13750;50.804;8.764;2024-03-29T04:22:15;0.90;;;0.60;;
25952;SDS011;13750;50.804;8.764;2024-03-29T04:24:41;1.60;;;0.70;;
25952;SDS011;13750;50.804;8.764;2024-03-29T04:27:06;0.87;;;0.60;;
25952;SDS011;13750;50.804;8.764;2024-03-29T04:29:32;0.83;;;0.53;;
25952;SDS011;13750;50.804;8.764;2024-03-29T04:31:57;0.97;;;0.50;;
25952;SDS011;13750;50.804;8.764;2024-03-29T04:34:23;0.40;;;0.40;;
25952;SDS011;13750;50.804;8.764;2024-03-29T04:36:48;0.47;;;0.40;;
25952;SDS011;13750;50.804;8.764;2024-03-29T04:39:14;1.17;;;0.50;;
25952;SDS011;13750;50.804;8.764;2024-03-29T04:41:39;1.17;;;0.47;;
25952;SDS011;13750;50.804;8.764;2024-03-29T04:44:05;0.63;;;0.47;;
25952;SDS011;13750;50.804;8.764;2024-03-29T04:46:33;0.30;;;0.30;;
25952;SDS011;13750;50.804;8.764;2024-03-29T04:48:58;0.33;;;0.33;;
25952;SDS011;13750;50.804;8.764;2024-03-29T04:51:24;0.40;;;0.30;;
25952;SDS011;13750;50.804;8.764;2024-03-29T04:53:50;0.60;;;0.50;;
25952;SDS011;13750;50.804;8.764;2024-03-29T04:56:15;0.73;;;0.50;;
25952;SDS011;13750;50.804;8.764;2024-03-29T04:58:41;0.53;;;0.40;;
25952;SDS011;13750;50.804;8.764;2024-03-29T05:01:07;0.40;;;0.40;;
25952;SDS011;13750;50.804;8.764;2024-03-29T05:03:32;0.93;;;0.40;;
25952;SDS011;13750;50.804;8.764;2024-03-29T05:05:58;1.00;;;0.40;;
25952;SDS011;13750;50.804;8.764;2024-03-29T05:08:24;0.82;;;0.35;;
25952;SDS011;13750;50.804;8.764;2024-03-29T05:10:49;1.17;;;0.40;;
25952;SDS011;13750;50.804;8.764;2024-03-29T05:13:16;0.77;;;0.30;;
25952;SDS011;13750;50.804;8.764;2024-03-29T05:15:43;0.50;;;0.30;;
25952;SDS011;13750;50.804;8.764;2024-03-29T05:18:09;0.63;;;0.47;;
25952;SDS011;13750;50.804;8.764;2024-03-29T05:20:35;0.50;;;0.40;;
25952;SDS011;13750;50.804;8.764;2024-03-29T05:23:01;0.22;;;0.22;;
25952;SDS011;13750;50.804;8.764;2024-03-29T05:25:27;0.27;;;0.27;;
25952;SDS011;13750;50.804;8.764;2024-03-29T05:27:53;0.30;;;0.30;;
25952;SDS011;13750;50.804;8.764;2024-03-29T05:30:18;0.50;;;0.30;;
25952;SDS011;13750;50.804;8.764;2024-03-29T05:32:44;0.20;;;0.20;;
25952;SDS011;13750;50.804;8.764;2024-03-29T05:35:10;0.70;;;0.50;;
25952;SDS011;13750;50.804;8.764;2024-03-29T05:37:36;0.23;;;0.20;;
25952;SDS011;13750;50.804;8.764;2024-03-29T05:40:02;0.97;;;0.40;;
25952;SDS011;13750;50.804;8.764;2024-03-29T05:42:30;0.20;;;0.20;;
25952;SDS011;13750;50.804;8.764;2024-03-29T05:44:57;0.30;;;0.30;;
25952;SDS011;13750;50.804;8.764;2024-03-29T05:47:22;0.30;;;0.20;;
25952;SDS011;13750;50.804;8.764;2024-03-29T05:49:48;0.47;;;0.23;;
25952;SDS011;13750;50.804;8.764;2024-03-29T05:52:14;1.50;;;0.60;;
25952;SDS011;13750;50.804;8.764;2024-03-29T05:54:40;0.23;;;0.23;;
25952;SDS011;13750;50.804;8.764;2024-03-29T05:57:08;0.68;;;0.50;;
25952;SDS011;13750;50.804;8.764;2024-03-29T05:59:34;0.50;;;0.23;;
25952;SDS011;13750;50.804;8.764;2024-03-29T06:02:00;0.50;;;0.47;;
25952;SDS011;13750;50.804;8.764;2024-03-29T06:04:26;0.40;;;0.30;;
25952;SDS011;13750;50.804;8.764;2024-03-29T06:06:58;0.25;;;0.25;;
25952;SDS011;13750;50.804;8.764;2024-03-29T06:09:27;0.30;;;0.30;;
25952;SDS011;13750;50.804;8.764;2024-03-29T06:11:53;0.20;;;0.20;;
25952;SDS011;13750;50.804;8.764;2024-03-29T06:14:20;0.25;;;0.20;;
25952;SDS011;13750;50.804;8.764;2024-03-29T06:17:04;0.50;;;0.30;;
25952;SDS011;13750;50.804;8.764;2024-03-29T06:19:48;0.45;;;0.30;;
25952;SDS011;13750;50.804;8.764;2024-03-29T06:22:15;0.60;;;0.30;;
25952;SDS011;13750;50.804;8.764;2024-03-29T06:24:42;0.30;;;0.30;;
25952;SDS011;13750;50.804;8.764;2024-03-29T06:27:11;0.57;;;0.38;;
25952;SDS011;13750;50.804;8.764;2024-03-29T06:29:41;0.77;;;0.30;;
25952;SDS011;13750;50.804;8.764;2024-03-29T06:32:10;0.53;;;0.30;;
25952;SDS011;13750;50.804;8.764;2024-03-29T06:34:35;0.38;;;0.35;;
25952;SDS011;13750;50.804;8.764;2024-03-29T06:37:01;0.63;;;0.40;;
25952;SDS011;13750;50.804;8.764;2024-03-29T06:39:27;1.27;;;0.30;;
25952;SDS011;13750;50.804;8.764;2024-03-29T06:41:53;0.30;;;0.30;;
25952;SDS011;13750;50.804;8.764;2024-03-29T06:44:18;0.30;;;0.30;;
25952;SDS011;13750;50.804;8.764;2024-03-29T06:46:44;0.43;;;0.30;;
25952;SDS011;13750;50.804;8.764;2024-03-29T06:49:10;0.22;;;0.20;;
25952;SDS011;13750;50.804;8.764;2024-03-29T06:51:36;0.20;;;0.20;;
25952;SDS011;13750;50.804;8.764;2024-03-29T06:54:01;0.83;;;0.43;;
25952;SDS011;13750;50.804;8.764;2024-03-29T06:56:28;0.75;;;0.30;;
25952;SDS011;13750;50.804;8.764;2024-03-29T06:58:55;0.22;;;0.20;;
25952;SDS011;13750;50.804;8.764;2024-03-29T07:01:20;0.33;;;0.33;;
25952;SDS011;13750;50.804;8.764;2024-03-29T07:03:46;0.43;;;0.43;;
25952;SDS011;13750;50.804;8.764;2024-03-29T07:06:11;0.60;;;0.30;;
25952;SDS011;13750;50.804;8.764;2024-03-29T07:08:37;0.60;;;0.20;;
25952;SDS011;13750;50.804;8.764;2024-03-29T07:11:02;0.70;;;0.27;;
25952;SDS011;13750;50.804;8.764;2024-03-29T07:13:29;0.43;;;0.43;;
25952;SDS011;13750;50.804;8.764;2024-03-29T07:15:56;0.30;;;0.30;;
25952;SDS011;13750;50.804;8.764;2024-03-29T07:18:22;0.40;;;0.20;;
25952;SDS011;13750;50.804;8.764;2024-03-29T07:20:48;0.30;;;0.30;;
25952;SDS011;13750;50.804;8.764;2024-03-29T07:23:14;0.20;;;0.20;;
25952;SDS011;13750;50.804;8.764;2024-03-29T07:25:40;0.33;;;0.23;;
25952;SDS011;13750;50.804;8.764;2024-03-29T07:28:06;0.20;;;0.20;;
25952;SDS011;13750;50.804;8.764;2024-03-29T07:30:32;0.10;;;0.10;;
25952;SDS011;13750;50.804;8.764;2024-03-29T07:32:57;0.30;;;0.30;;
25952;SDS011;13750;50.804;8.764;2024-03-29T07:35:23;0.20;;;0.20;;
25952;SDS011;13750;50.804;8.764;2024-03-29T07:37:49;0.30;;;0.27;;
25952;SDS011;13750;50.804;8.764;2024-03-29T07:40:16;0.43;;;0.30;;
25952;SDS011;13750;50.804;8.764;2024-03-29T07:42:41;0.20;;;0.20;;
25952;SDS011;13750;50.804;8.764;2024-03-29T07:45:07;1.00;;;0.30;;
25952;SDS011;13750;50.804;8.764;2024-03-29T07:47:33;0.30;;;0.30;;
25952;SDS011;13750;50.804;8.764;2024-03-29T07:49:59;0.40;;;0.40;;
25952;SDS011;13750;50.804;8.764;2024-03-29T07:52:24;0.37;;;0.37;;
25952;SDS011;13750;50.804;8.764;2024-03-29T07:54:50;0.47;;;0.30;;
25952;SDS011;13750;50.804;8.764;2024-03-29T07:57:16;0.30;;;0.20;;
25952;SDS011;13750;50.804;8.764;2024-03-29T07:59:42;0.30;;;0.30;;
25952;SDS011;13750;50.804;8.764;2024-03-29T08:02:07;1.53;;;0.73;;
25952;SDS011;13750;50.804;8.764;2024-03-29T08:04:34;0.40;;;0.40;;
25952;SDS011;13750;50.804;8.764;2024-03-29T08:07:00;0.70;;;0.43;;
25952;SDS011;13750;50.804;8.764;2024-03-29T08:09:25;0.40;;;0.40;;
25952;SDS011;13750;50.804;8.764;2024-03-29T08:11:51;0.33;;;0.23;;
25952;SDS011;13750;50.804;8.764;2024-03-29T08:14:17;0.30;;;0.30;;
25952;SDS011;13750;50.804;8.764;2024-03-29T08:16:42;0.40;;;0.40;;
25952;SDS011;13750;50.804;8.764;2024-03-29T08:19:08;0.30;;;0.30;;
25952;SDS011;13750;50.804;8.764;2024-03-29T08:21:34;0.40;;;0.30;;
25952;SDS011;13750;50.804;8.764;2024-03-29T08:24:00;0.50;;;0.35;;
25952;SDS011;13750;50.804;8.764;2024-03-29T08:26:27;0.30;;;0.30;;
25952;SDS011;13750;50.804;8.764;2024-03-29T08:28:56;0.47;;;0.45;;
25952;SDS011;13750;50.804;8.764;2024-03-29T08:31:21;1.57;;;0.57;;
25952;SDS011;13750;50.804;8.764;2024-03-29T08:33:49;0.40;;;0.30;;
25952;SDS011;13750;50.804;8.764;2024-03-29T08:36:15;0.47;;;0.40;;
25952;SDS011;13750;50.804;8.764;2024-03-29T08:38:41;0.27;;;0.27;;
25952;SDS011;13750;50.804;8.764;2024-03-29T08:41:08;0.47;;;0.30;;
25952;SDS011;13750;50.804;8.764;2024-03-29T08:43:34;0.30;;;0.30;;
25952;SDS011;13750;50.804;8.764;2024-03-29T08:46:00;0.30;;;0.30;;
25952;SDS011;13750;50.804;8.764;2024-03-29T08:48:26;0.30;;;0.30;;
25952;SDS011;13750;50.804;8.764;2024-03-29T08:50:52;0.30;;;0.30;;
25952;SDS011;13750;50.804;8.764;2024-03-29T08:53:18;0.27;;;0.20;;
25952;SDS011;13750;50.804;8.764;2024-03-29T08:55:45;0.23;;;0.23;;
25952;SDS011;13750;50.804;8.764;2024-03-29T08:58:11;0.20;;;0.20;;
25952;SDS011;13750;50.804;8.764;2024-03-29T09:00:37;0.40;;;0.40;;
25952;SDS011;13750;50.804;8.764;2024-03-29T09:03:02;0.30;;;0.30;;
25952;SDS011;13750;50.804;8.764;2024-03-29T09:05:28;0.27;;;0.27;;
25952;SDS011;13750;50.804;8.764;2024-03-29T09:07:54;0.20;;;0.20;;
25952;SDS011;13750;50.804;8.764;2024-03-29T09:10:21;0.20;;;0.20;;
25952;SDS011;13750;50.804;8.764;2024-03-29T09:12:48;0.30;;;0.28;;
25952;SDS011;13750;50.804;8.764;2024-03-29T09:15:14;0.30;;;0.30;;
25952;SDS011;13750;50.804;8.764;2024-03-29T09:20:07;0.32;;;0.30;;
25952;SDS011;13750;50.804;8.764;2024-03-29T09:22:33;0.45;;;0.30;;
25952;SDS011;13750;50.804;8.764;2024-03-29T09:24:59;0.50;;;0.30;;
25952;SDS011;13750;50.804;8.764;2024-03-29T09:27:26;0.53;;;0.40;;
25952;SDS011;13750;50.804;8.764;2024-03-29T09:29:52;0.25;;;0.20;;
25952;SDS011;13750;50.804;8.764;2024-03-29T09:32:18;0.40;;;0.40;;
25952;SDS011;13750;50.804;8.764;2024-03-29T09:34:45;0.50;;;0.30;;
25952;SDS011;13750;50.804;8.764;2024-03-29T09:37:11;0.40;;;0.40;;
25952;SDS011;13750;50.804;8.764;2024-03-29T09:39:36;0.23;;;0.23;;
25952;SDS011;13750;50.804;8.764;2024-03-29T09:42:02;0.50;;;0.40;;
25952;SDS011;13750;50.804;8.764;2024-03-29T09:44:30;0.60;;;0.40;;
25952;SDS011;13750;50.804;8.764;2024-03-29T09:47:02;0.50;;;0.40;;
25952;SDS011;13750;50.804;8.764;2024-03-29T09:49:29;0.30;;;0.30;;
25952;SDS011;13750;50.804;8.764;2024-03-29T09:51:56;1.05;;;0.55;;
25952;SDS011;13750;50.804;8.764;2024-03-29T09:54:29;0.28;;;0.28;;
25952;SDS011;13750;50.804;8.764;2024-03-29T09:56:57;0.28;;;0.28;;
25952;SDS011;13750;50.804;8.764;2024-03-29T09:59:23;0.50;;;0.35;;
25952;SDS011;13750;50.804;8.764;2024-03-29T10:01:50;0.47;;;0.38;;
25952;SDS011;13750;50.804;8.764;2024-03-29T10:04:17;0.28;;;0.28;;
25952;SDS011;13750;50.804;8.764;2024-03-29T10:06:46;0.50;;;0.40;;
25952;SDS011;13750;50.804;8.764;2024-03-29T10:09:14;1.75;;;0.47;;
25952;SDS011;13750;50.804;8.764;2024-03-29T10:11:42;0.55;;;0.40;;
25952;SDS011;13750;50.804;8.764;2024-03-29T10:14:08;0.30;;;0.30;;
25952;SDS011;13750;50.804;8.764;2024-03-29T10:16:33;0.33;;;0.20;;
25952;SDS011;13750;50.804;8.764;2024-03-29T10:18:59;0.47;;;0.37;;
25952;SDS011;13750;50.804;8.764;2024-03-29T10:21:24;0.40;;;0.40;;
25952;SDS011;13750;50.804;8.764;2024-03-29T10:23:53;0.30;;;0.30;;
25952;SDS011;13750;50.804;8.764;2024-03-29T10:26:19;0.40;;;0.40;;
25952;SDS011;13750;50.804;8.764;2024-03-29T10:28:46;0.30;;;0.30;;
25952;SDS011;13750;50.804;8.764;2024-03-29T10:31:12;0.40;;;0.40;;
25952;SDS011;13750;50.804;8.764;2024-03-29T10:33:41;0.38;;;0.38;;
25952;SDS011;13750;50.804;8.764;2024-03-29T10:36:07;0.55;;;0.40;;
25952;SDS011;13750;50.804;8.764;2024-03-29T10:38:37;0.43;;;0.40;;
25952;SDS011;13750;50.804;8.764;2024-03-29T10:41:03;0.43;;;0.37;;
25952;SDS011;13750;50.804;8.764;2024-03-29T10:43:31;0.40;;;0.30;;
25952;SDS011;13750;50.804;8.764;2024-03-29T10:45:57;0.32;;;0.30;;
25952;SDS011;13750;50.804;8.764;2024-03-29T10:48:25;0.55;;;0.40;;
25952;SDS011;13750;50.804;8.764;2024-03-29T10:50:54;0.45;;;0.30;;
25952;SDS011;13750;50.804;8.764;2024-03-29T10:53:22;0.30;;;0.30;;
25952;SDS011;13750;50.804;8.764;2024-03-29T10:55:54;0.47;;;0.30;;
25952;SDS011;13750;50.804;8.764;2024-03-29T10:58:24;0.40;;;0.40;;
25952;SDS011;13750;50.804;8.764;2024-03-29T11:00:56;0.30;;;0.30;;
25952;SDS011;13750;50.804;8.764;2024-03-29T11:03:29;0.47;;;0.20;;
25952;SDS011;13750;50.804;8.764;2024-03-29T11:06:02;0.20;;;0.20;;
25952;SDS011;13750;50.804;8.764;2024-03-29T11:08:31;0.38;;;0.28;;
25952;SDS011;13750;50.804;8.764;2024-03-29T11:10:59;0.40;;;0.35;;
25952;SDS011;13750;50.804;8.764;2024-03-29T11:16:18;0.32;;;0.25;;
25952;SDS011;13750;50.804;8.764;2024-03-29T11:18:45;0.30;;;0.28;;
25952;SDS011;13750;50.804;8.764;2024-03-29T11:21:12;0.20;;;0.20;;
25952;SDS011;13750;50.804;8.764;2024-03-29T11:23:43;0.20;;;0.20;;
25952;SDS011;13750;50.804;8.764;2024-03-29T11:26:14;0.30;;;0.30;;
25952;SDS011;13750;50.804;8.764;2024-03-29T11:28:40;0.28;;;0.20;;
25952;SDS011;13750;50.804;8.764;2024-03-29T11:31:08;0.20;;;0.20;;
25952;SDS011;13750;50.804;8.764;2024-03-29T11:33:35;0.45;;;0.30;;
25952;SDS011;13750;50.804;8.764;2024-03-29T11:36:11;0.60;;;0.30;;
25952;SDS011;13750;50.804;8.764;2024-03-29T11:38:38;0.95;;;0.40;;
25952;SDS011;13750;50.804;8.764;2024-03-29T11:41:15;0.40;;;0.30;;
25952;SDS011;13750;50.804;8.764;2024-03-29T11:43:42;0.60;;;0.38;;
25952;SDS011;13750;50.804;8.764;2024-03-29T11:46:11;0.50;;;0.43;;
25952;SDS011;13750;50.804;8.764;2024-03-29T11:48:39;0.57;;;0.40;;
25952;SDS011;13750;50.804;8.764;2024-03-29T11:51:08;0.20;;;0.20;;
25952;SDS011;13750;50.804;8.764;2024-03-29T11:53:36;0.22;;;0.22;;
25952;SDS011;13750;50.804;8.764;2024-03-29T11:56:02;0.30;;;0.30;;
25952;SDS011;13750;50.804;8.764;2024-03-29T12:00:56;0.30;;;0.30;;
25952;SDS011;13750;50.804;8.764;2024-03-29T12:03:23;0.30;;;0.30;;
25952;SDS011;13750;50.804;8.764;2024-03-29T12:05:53;0.52;;;0.40;;
25952;SDS011;13750;50.804;8.764;2024-03-29T12:08:22;1.02;;;0.63;;
25952;SDS011;13750;50.804;8.764;2024-03-29T12:10:48;1.33;;;0.87;;
25952;SDS011;13750;50.804;8.764;2024-03-29T12:13:15;1.25;;;0.90;;
25952;SDS011;13750;50.804;8.764;2024-03-29T12:15:42;1.30;;;0.85;;
25952;SDS011;13750;50.804;8.764;2024-03-29T12:18:08;1.20;;;0.73;;
25952;SDS011;13750;50.804;8.764;2024-03-29T12:20:34;0.90;;;0.60;;
25952;SDS011;13750;50.804;8.764;2024-03-29T12:23:02;0.88;;;0.60;;
25952;SDS011;13750;50.804;8.764;2024-03-29T12:25:30;0.68;;;0.60;;
25952;SDS011;13750;50.804;8.764;2024-03-29T12:27:57;0.88;;;0.68;;
25952;SDS011;13750;50.804;8.764;2024-03-29T12:30:23;0.88;;;0.70;;
25952;SDS011;13750;50.804;8.764;2024-03-29T12:46:31;0.60;;;0.40;;
25952;SDS011;13750;50.804;8.764;2024-03-29T12:49:00;0.50;;;0.47;;
25952;SDS011;13750;50.804;8.764;2024-03-29T12:51:26;0.98;;;0.60;;
25952;SDS011;13750;50.804;8.764;2024-03-29T12:53:52;0.52;;;0.50;;
25952;SDS011;13750;50.804;8.764;2024-03-29T12:56:18;1.07;;;0.80;;
25952;SDS011;13750;50.804;8.764;2024-03-29T12:58:44;0.90;;;0.67;;
25952;SDS011;13750;50.804;8.764;2024-03-29T13:01:09;1.03;;;0.63;;
25952;SDS011;13750;50.804;8.764;2024-03-29T13:03:36;0.50;;;0.50;;
25952;SDS011;13750;50.804;8.764;2024-03-29T13:06:03;0.60;;;0.60;;
25952;SDS011;13750;50.804;8.764;2024-03-29T13:08:28;0.83;;;0.60;;
25952;SDS011;13750;50.804;8.764;2024-03-29T13:10:54;0.50;;;0.40;;
25952;SDS011;13750;50.804;8.764;2024-03-29T13:13:20;0.40;;;0.40;;
25952;SDS011;13750;50.804;8.764;2024-03-29T13:15:46;0.70;;;0.50;;
25952;SDS011;13750;50.804;8.764;2024-03-29T13:18:12;0.50;;;0.50;;
25952;SDS011;13750;50.804;8.764;2024-03-29T13:20:41;0.43;;;0.43;;
25952;SDS011;13750;50.804;8.764;2024-03-29T13:23:07;0.80;;;0.60;;
25952;SDS011;13750;50.804;8.764;2024-03-29T13:25:33;0.63;;;0.60;;
25952;SDS011;13750;50.804;8.764;2024-03-29T13:27:59;0.60;;;0.60;;
25952;SDS011;13750;50.804;8.764;2024-03-29T13:30:25;0.90;;;0.70;;
25952;SDS011;13750;50.804;8.764;2024-03-29T13:32:51;0.60;;;0.50;;
25952;SDS011;13750;50.804;8.764;2024-03-29T13:35:18;0.60;;;0.60;;
25952;SDS011;13750;50.804;8.764;2024-03-29T13:37:46;0.60;;;0.60;;
25952;SDS011;13750;50.804;8.764;2024-03-29T13:40:12;1.15;;;0.70;;
25952;SDS011;13750;50.804;8.764;2024-03-29T13:42:39;0.85;;;0.77;;
25952;SDS011;13750;50.804;8.764;2024-03-29T13:45:05;0.80;;;0.57;;
25952;SDS011;13750;50.804;8.764;2024-03-29T13:47:32;0.60;;;0.60;;
25952;SDS011;13750;50.804;8.764;2024-03-29T13:49:58;0.57;;;0.57;;
25952;SDS011;13750;50.804;8.764;2024-03-29T13:52:23;0.80;;;0.70;;
25952;SDS011;13750;50.804;8.764;2024-03-29T13:54:49;0.80;;;0.80;;
25952;SDS011;13750;50.804;8.764;2024-03-29T13:57:18;1.13;;;0.95;;
25952;SDS011;13750;50.804;8.764;2024-03-29T13:59:44;0.80;;;0.70;;
25952;SDS011;13750;50.804;8.764;2024-03-29T14:02:19;1.00;;;0.80;;
25952;SDS011;13750;50.804;8.764;2024-03-29T14:04:45;0.95;;;0.70;;
25952;SDS011;13750;50.804;8.764;2024-03-29T14:09:39;0.60;;;0.60;;
25952;SDS011;13750;50.804;8.764;2024-03-29T14:12:07;0.90;;;0.60;;
25952;SDS011;13750;50.804;8.764;2024-03-29T14:14:33;0.50;;;0.50;;
25952;SDS011;13750;50.804;8.764;2024-03-29T14:16:59;0.40;;;0.40;;
25952;SDS011;13750;50.804;8.764;2024-03-29T14:19:29;1.00;;;0.75;;
25952;SDS011;13750;50.804;8.764;2024-03-29T14:21:58;0.77;;;0.63;;
25952;SDS011;13750;50.804;8.764;2024-03-29T14:24:24;0.50;;;0.50;;
25952;SDS011;13750;50.804;8.764;2024-03-29T14:26:50;0.50;;;0.50;;
25952;SDS011;13750;50.804;8.764;2024-03-29T14:29:17;0.60;;;0.60;;
25952;SDS011;13750;50.804;8.764;2024-03-29T14:31:46;0.47;;;0.47;;
25952;SDS011;13750;50.804;8.764;2024-03-29T14:34:15;0.93;;;0.70;;
25952;SDS011;13750;50.804;8.764;2024-03-29T14:36:41;0.60;;;0.60;;
25952;SDS011;13750;50.804;8.764;2024-03-29T14:39:07;0.70;;;0.40;;
25952;SDS011;13750;50.804;8.764;2024-03-29T14:41:32;0.70;;;0.67;;
25952;SDS011;13750;50.804;8.764;2024-03-29T14:44:03;0.50;;;0.50;;
25952;SDS011;13750;50.804;8.764;2024-03-29T14:46:30;0.60;;;0.40;;
25952;SDS011;13750;50.804;8.764;2024-03-29T14:48:56;0.50;;;0.50;;
25952;SDS011;13750;50.804;8.764;2024-03-29T14:51:21;0.50;;;0.50;;
25952;SDS011;13750;50.804;8.764;2024-03-29T14:53:47;0.30;;;0.30;;
25952;SDS011;13750;50.804;8.764;2024-03-29T14:56:15;0.70;;;0.50;;
25952;SDS011;13750;50.804;8.764;2024-03-29T14:58:43;0.63;;;0.63;;
25952;SDS011;13750;50.804;8.764;2024-03-29T15:01:10;0.63;;;0.60;;
25952;SDS011;13750;50.804;8.764;2024-03-29T15:03:35;0.60;;;0.60;;
25952;SDS011;13750;50.804;8.764;2024-03-29T15:06:01;0.83;;;0.63;;
25952;SDS011;13750;50.804;8.764;2024-03-29T15:08:26;0.50;;;0.50;;
25952;SDS011;13750;50.804;8.764;2024-03-29T15:11:00;0.60;;;0.50;;
25952;SDS011;13750;50.804;8.764;2024-03-29T15:13:26;0.50;;;0.50;;